Time;durP1;ratioP1;P1;durP2;ratioP2;P2;SDS_P1;SDS_P2;PMS_P1;PMS_P2;Temp;Humidity;BMP_temperature;BMP_pressure;BME280_temperature;BME280_humidity;BME280_pressure;Samples;Min_cycle;Max_cycle;Signal;HPM_P1;HPM_P2
2022/04/09 00:01:10;;;;;;;24.37;3.70;;;5.70;99.90;;;;;;5058421;28;36758;-78
2022/04/09 00:03:36;;;;;;;17.33;3.50;;;5.60;99.90;;;;;;5057444;28;36897;-78
2022/04/09 00:06:03;;;;;;;22.70;3.27;;;5.70;99.90;;;;;;5061399;28;39635;-78
2022/04/09 00:08:29;;;;;;;29.63;3.90;;;5.60;99.90;;;;;;5053039;28;38280;-78
2022/04/09 00:10:55;;;;;;;25.57;3.53;;;5.50;99.90;;;;;;5059292;28;38376;-78
2022/04/09 00:13:21;;;;;;;20.23;3.33;;;5.60;99.90;;;;;;5060408;28;36148;-79
2022/04/09 00:15:48;;;;;;;18.37;3.43;;;5.50;99.90;;;;;;5058259;28;39430;-78
2022/04/09 00:18:15;;;;;;;19.60;2.60;;;5.60;99.90;;;;;;5069685;28;38335;-79
2022/04/09 00:20:41;;;;;;;18.17;2.43;;;5.70;99.90;;;;;;5072907;28;38026;-79
2022/04/09 00:23:10;;;;;;;22.07;2.90;;;5.80;99.90;;;;;;5060003;28;36209;-76
2022/04/09 00:25:36;;;;;;;19.80;4.03;;;5.80;99.90;;;;;;5053254;28;37758;-78
2022/04/09 00:28:03;;;;;;;21.93;3.03;;;5.80;99.90;;;;;;5051531;28;39117;-75
2022/04/09 00:30:29;;;;;;;15.07;2.37;;;5.90;99.90;;;;;;5054103;28;37077;-78
2022/04/09 00:32:55;;;;;;;19.60;4.03;;;6.10;99.90;;;;;;5076916;28;38897;-76
2022/04/09 00:35:21;;;;;;;8.77;1.60;;;6.10;99.90;;;;;;5061291;28;39151;-79
2022/04/09 00:37:48;;;;;;;13.83;1.87;;;6.10;99.90;;;;;;5076590;28;38781;-78
2022/04/09 00:40:19;;;;;;;14.00;2.40;;;6.00;99.90;;;;;;5065392;28;37794;-80
2022/04/09 00:42:46;;;;;;;10.80;2.17;;;5.80;99.90;;;;;;5068721;28;37420;-78
2022/04/09 00:45:13;;;;;;;12.43;2.00;;;5.60;99.90;;;;;;5065896;28;39050;-78
2022/04/09 00:47:39;;;;;;;11.97;1.93;;;5.50;99.90;;;;;;5065415;28;39575;-76
2022/04/09 00:50:07;;;;;;;17.90;1.97;;;5.40;99.90;;;;;;5065485;28;38123;-75
2022/04/09 00:52:35;;;;;;;13.60;2.33;;;5.40;99.90;;;;;;5077372;28;38480;-75
2022/04/09 00:55:04;;;;;;;18.77;2.30;;;5.50;99.90;;;;;;5081509;28;39349;-75
2022/04/09 00:57:35;;;;;;;14.20;3.03;;;5.50;99.90;;;;;;5065792;28;47334;-76
2022/04/09 01:00:09;;;;;;;14.83;2.03;;;5.70;99.90;;;;;;5059937;28;36998;-76
2022/04/09 01:02:40;;;;;;;12.10;1.70;;;5.30;99.90;;;;;;5073052;28;48988;-76
2022/04/09 01:05:07;;;;;;;14.77;1.97;;;4.90;99.90;;;;;;5070972;28;38677;-76
2022/04/09 01:07:34;;;;;;;11.37;1.60;;;4.70;99.90;;;;;;5058300;28;39993;-75
2022/04/09 01:10:01;;;;;;;19.20;2.50;;;4.60;99.90;;;;;;5064012;28;39257;-75
2022/04/09 01:12:27;;;;;;;15.03;2.40;;;4.60;99.90;;;;;;5063096;28;38281;-76
2022/04/09 01:14:54;;;;;;;13.73;2.97;;;4.70;99.90;;;;;;5071418;28;39795;-76
2022/04/09 01:17:20;;;;;;;19.23;2.87;;;4.70;99.90;;;;;;5066900;28;37072;-76
2022/04/09 01:19:46;;;;;;;21.87;3.57;;;4.60;99.90;;;;;;5069237;28;38982;-76
2022/04/09 01:22:12;;;;;;;19.40;3.30;;;4.60;99.90;;;;;;5055858;28;38399;-75
2022/04/09 01:24:38;;;;;;;25.23;3.50;;;4.70;99.90;;;;;;5062899;28;39836;-75
2022/04/09 01:27:04;;;;;;;13.73;2.40;;;4.80;99.90;;;;;;5058582;28;39090;-76
2022/04/09 01:29:30;;;;;;;26.83;3.60;;;5.10;99.90;;;;;;5070021;28;39079;-74
2022/04/09 01:31:57;;;;;;;17.97;2.97;;;5.20;99.90;;;;;;5074585;28;37898;-75
2022/04/09 01:34:23;;;;;;;17.30;3.07;;;5.40;99.90;;;;;;5076668;27;37387;-76
2022/04/09 01:36:49;;;;;;;19.43;2.77;;;5.60;99.90;;;;;;5064931;28;38824;-75
2022/04/09 01:39:17;;;;;;;20.97;2.93;;;5.60;99.90;;;;;;5061467;28;38148;-75
2022/04/09 01:41:45;;;;;;;22.13;2.70;;;5.70;99.90;;;;;;5061926;28;38002;-76
2022/04/09 01:44:11;;;;;;;16.33;2.67;;;5.70;99.90;;;;;;5060536;27;38637;-76
2022/04/09 01:46:41;;;;;;;17.83;2.97;;;5.80;99.90;;;;;;5063284;28;38497;-78
2022/04/09 01:49:07;;;;;;;12.10;1.83;;;5.90;99.90;;;;;;5059991;28;40576;-76
2022/04/09 01:51:33;;;;;;;18.40;2.60;;;5.90;99.90;;;;;;5068454;28;37302;-76
2022/04/09 01:53:59;;;;;;;12.27;2.53;;;5.80;99.90;;;;;;5065238;28;39353;-78
2022/04/09 01:56:25;;;;;;;21.57;4.23;;;5.70;99.90;;;;;;5080314;28;38717;-79
2022/04/09 01:58:51;;;;;;;17.20;2.53;;;5.60;99.90;;;;;;5065874;28;37146;-76
2022/04/09 02:01:17;;;;;;;10.90;1.90;;;5.50;99.90;;;;;;5064717;28;37515;-78
2022/04/09 02:03:44;;;;;;;10.77;1.87;;;5.40;99.90;;;;;;5065921;28;39356;-79
2022/04/09 02:06:11;;;;;;;15.87;2.10;;;5.30;99.90;;;;;;5067426;28;38553;-79
2022/04/09 02:08:38;;;;;;;11.23;2.00;;;5.20;99.90;;;;;;5070363;27;39091;-78
2022/04/09 02:11:04;;;;;;;15.63;2.63;;;5.20;99.90;;;;;;5067634;28;37535;-78
2022/04/09 02:13:32;;;;;;;10.13;2.10;;;5.10;99.90;;;;;;5047443;28;39224;-76
2022/04/09 02:15:58;;;;;;;9.13;1.97;;;5.20;99.90;;;;;;5055918;28;38688;-76
2022/04/09 02:18:24;;;;;;;14.47;2.57;;;5.40;99.90;;;;;;5062332;28;38844;-80
2022/04/09 02:20:52;;;;;;;12.10;1.80;;;5.50;99.90;;;;;;5068697;28;36304;-76
2022/04/09 02:23:19;;;;;;;15.07;2.10;;;5.30;99.90;;;;;;5069312;28;38652;-76
2022/04/09 02:25:45;;;;;;;14.70;2.33;;;5.00;99.90;;;;;;5056366;28;38820;-76
2022/04/09 02:28:11;;;;;;;18.03;1.90;;;4.80;99.90;;;;;;5077782;27;38923;-76
2022/04/09 02:30:37;;;;;;;13.77;2.27;;;4.70;99.90;;;;;;5037953;28;38543;-76
2022/04/09 02:33:03;;;;;;;12.53;2.30;;;4.60;99.90;;;;;;5056660;28;40606;-76
2022/04/09 02:35:30;;;;;;;12.17;2.33;;;4.50;99.90;;;;;;5061036;28;39058;-77
2022/04/09 02:37:57;;;;;;;15.83;2.63;;;4.50;99.90;;;;;;5061282;28;38822;-75
2022/04/09 02:40:23;;;;;;;17.37;1.90;;;4.50;99.90;;;;;;5067889;28;38519;-76
2022/04/09 02:42:50;;;;;;;9.63;2.57;;;4.50;99.90;;;;;;5064538;28;38891;-76
2022/04/09 02:45:16;;;;;;;16.93;2.40;;;4.50;99.90;;;;;;5077563;28;40835;-75
2022/04/09 02:47:42;;;;;;;21.40;3.40;;;4.60;99.90;;;;;;5065047;28;38198;-75
2022/04/09 02:50:09;;;;;;;15.57;2.77;;;4.80;99.90;;;;;;5064513;28;37311;-75
2022/04/09 02:52:37;;;;;;;12.13;2.23;;;4.90;99.90;;;;;;5075752;28;39810;-76
2022/04/09 02:55:05;;;;;;;10.97;1.77;;;5.00;99.90;;;;;;5076555;28;38795;-75
2022/04/09 02:57:32;;;;;;;14.03;1.70;;;5.20;99.90;;;;;;5061101;28;39039;-75
2022/04/09 02:59:58;;;;;;;17.20;2.13;;;5.30;99.90;;;;;;5066595;28;35880;-75
2022/04/09 03:02:24;;;;;;;8.47;1.60;;;5.50;99.90;;;;;;5066460;28;38838;-76
2022/04/09 03:04:52;;;;;;;6.33;1.87;;;5.60;99.90;;;;;;5068427;28;38429;-76
2022/04/09 03:07:18;;;;;;;10.87;1.70;;;5.60;99.90;;;;;;5068340;27;39011;-78
2022/04/09 03:09:44;;;;;;;12.33;2.10;;;5.60;99.90;;;;;;5061637;28;37042;-79
2022/04/09 03:12:10;;;;;;;14.27;1.97;;;5.60;99.90;;;;;;5074047;28;39382;-78
2022/04/09 03:14:36;;;;;;;6.77;1.67;;;5.70;99.90;;;;;;5057221;28;39409;-79
2022/04/09 03:17:03;;;;;;;13.63;1.60;;;5.60;99.90;;;;;;5067676;28;38265;-79
2022/04/09 03:19:29;;;;;;;13.77;2.27;;;5.60;99.90;;;;;;5072246;28;37898;-79
2022/04/09 03:21:55;;;;;;;14.40;2.10;;;5.60;99.90;;;;;;5052064;28;39790;-79
2022/04/09 03:24:21;;;;;;;13.23;2.03;;;5.60;99.90;;;;;;5056536;28;38568;-78
2022/04/09 03:26:47;;;;;;;12.87;2.00;;;5.60;99.90;;;;;;5061978;28;38262;-76
2022/04/09 03:29:13;;;;;;;10.13;2.00;;;5.70;99.90;;;;;;5072016;28;38394;-77
2022/04/09 03:31:39;;;;;;;12.37;1.97;;;5.70;99.90;;;;;;5053279;28;38862;-77
2022/04/09 03:34:06;;;;;;;14.23;3.10;;;5.70;99.90;;;;;;5063221;28;39376;-76
2022/04/09 03:36:32;;;;;;;15.10;2.20;;;5.80;99.90;;;;;;5070621;28;37302;-76
2022/04/09 03:38:58;;;;;;;12.53;2.53;;;5.90;99.90;;;;;;5045778;28;37171;-76
2022/04/09 03:41:24;;;;;;;14.53;3.03;;;5.90;99.90;;;;;;5066887;28;39830;-77
2022/04/09 03:43:51;;;;;;;20.13;3.40;;;6.00;99.90;;;;;;5063589;28;39194;-77
2022/04/09 03:46:17;;;;;;;17.80;2.67;;;6.20;99.90;;;;;;5072220;28;38430;-76
2022/04/09 03:48:43;;;;;;;13.70;2.30;;;6.20;99.90;;;;;;5062238;28;37187;-77
2022/04/09 03:51:11;;;;;;;16.00;2.80;;;6.30;99.90;;;;;;5064150;28;39604;-76
2022/04/09 03:53:37;;;;;;;16.77;2.67;;;6.40;99.90;;;;;;5070421;28;38462;-76
2022/04/09 03:56:04;;;;;;;20.63;2.33;;;6.50;99.90;;;;;;5071022;28;37622;-76
2022/04/09 03:58:30;;;;;;;18.07;3.20;;;6.50;99.90;;;;;;5045784;28;38818;-77
2022/04/09 04:00:57;;;;;;;18.00;2.60;;;6.60;99.90;;;;;;5061146;28;39559;-77
2022/04/09 04:03:25;;;;;;;10.83;2.13;;;6.60;99.90;;;;;;5068291;28;37973;-78
2022/04/09 04:05:51;;;;;;;12.83;2.03;;;6.50;99.90;;;;;;5070487;28;38063;-76
2022/04/09 04:08:17;;;;;;;11.83;1.80;;;6.40;99.90;;;;;;5065214;28;38094;-76
2022/04/09 04:10:43;;;;;;;9.47;2.03;;;6.30;99.90;;;;;;5065083;28;39680;-76
2022/04/09 04:13:11;;;;;;;10.27;2.37;;;6.30;99.90;;;;;;5052630;27;38133;-79
2022/04/09 04:15:37;;;;;;;14.30;2.10;;;6.30;99.90;;;;;;5071369;28;38348;-80
2022/04/09 04:18:05;;;;;;;8.63;2.07;;;6.30;99.90;;;;;;5070817;28;37300;-76
2022/04/09 04:20:32;;;;;;;10.83;1.93;;;6.30;99.90;;;;;;5056044;28;39841;-76
2022/04/09 04:22:58;;;;;;;11.57;2.50;;;6.30;99.90;;;;;;5052728;28;40002;-77
2022/04/09 04:25:25;;;;;;;13.10;2.23;;;6.20;99.90;;;;;;5055508;28;36796;-76
2022/04/09 04:27:51;;;;;;;19.20;3.50;;;6.30;99.90;;;;;;5056440;28;37569;-76
2022/04/09 04:30:18;;;;;;;15.73;2.30;;;6.20;99.90;;;;;;5061606;28;39308;-76
2022/04/09 04:32:45;;;;;;;10.33;2.20;;;6.20;99.90;;;;;;5045015;28;38357;-76
2022/04/09 04:35:12;;;;;;;12.13;2.40;;;6.10;99.90;;;;;;5043238;28;40020;-76
2022/04/09 04:37:43;;;;;;;11.77;2.70;;;6.00;99.90;;;;;;5053844;28;20088;-79
2022/04/09 04:40:11;;;;;;;13.93;2.37;;;5.90;99.90;;;;;;5066422;28;40359;-78
2022/04/09 04:42:37;;;;;;;16.33;2.73;;;6.00;99.90;;;;;;5057341;28;38301;-78
2022/04/09 04:45:05;;;;;;;13.50;2.67;;;6.00;99.90;;;;;;5058437;28;38139;-78
2022/04/09 04:47:31;;;;;;;25.90;4.30;;;5.90;99.90;;;;;;5063170;28;35734;-79
2022/04/09 04:49:57;;;;;;;15.83;2.97;;;5.90;99.90;;;;;;5079438;28;39202;-78
2022/04/09 04:52:23;;;;;;;13.23;3.00;;;5.80;99.90;;;;;;5064989;28;38605;-78
2022/04/09 04:54:49;;;;;;;15.43;2.43;;;5.80;99.90;;;;;;5065754;28;37752;-79
2022/04/09 04:57:15;;;;;;;15.80;2.83;;;5.80;99.90;;;;;;5056940;28;37126;-78
2022/04/09 04:59:41;;;;;;;23.97;3.27;;;5.70;99.90;;;;;;5065485;28;39893;-79
2022/04/09 05:02:07;;;;;;;15.67;3.40;;;5.80;99.90;;;;;;5046075;28;40162;-79
2022/04/09 05:04:33;;;;;;;17.73;4.70;;;5.70;99.90;;;;;;5062435;28;38103;-77
2022/04/09 05:06:59;;;;;;;16.23;3.70;;;5.70;99.90;;;;;;5060442;28;37374;-80
2022/04/09 05:09:25;;;;;;;20.13;3.33;;;5.80;99.90;;;;;;5069447;28;38826;-79
2022/04/09 05:11:51;;;;;;;22.40;3.47;;;5.90;99.90;;;;;;5066085;28;40043;-80
2022/04/09 05:14:17;;;;;;;17.83;3.00;;;5.90;99.90;;;;;;5066249;28;38178;-79
2022/04/09 05:16:43;;;;;;;18.40;3.17;;;6.00;99.90;;;;;;5064763;28;38740;-79
2022/04/09 05:19:09;;;;;;;15.77;2.90;;;6.00;99.90;;;;;;5043929;28;38892;-79
2022/04/09 05:21:35;;;;;;;17.23;3.93;;;5.90;99.90;;;;;;5062427;28;38574;-79
2022/04/09 05:24:02;;;;;;;18.20;3.50;;;5.90;99.90;;;;;;5062498;28;37555;-79
2022/04/09 05:26:28;;;;;;;22.63;3.20;;;5.90;99.90;;;;;;5066954;28;46814;-79
2022/04/09 05:28:54;;;;;;;17.23;3.97;;;5.90;99.90;;;;;;5067420;28;40297;-79
2022/04/09 05:31:27;;;;;;;21.60;3.40;;;6.00;99.90;;;;;;5066467;28;38149;-79
2022/04/09 05:33:56;;;;;;;20.75;2.90;;;6.10;99.90;;;;;;5061571;28;38695;-79
2022/04/09 05:36:23;;;;;;;19.17;3.00;;;6.10;99.90;;;;;;5048941;28;36872;-79
2022/04/09 05:38:49;;;;;;;26.40;3.70;;;6.10;99.90;;;;;;5053054;28;39607;-80
2022/04/09 05:41:15;;;;;;;13.23;2.80;;;6.20;99.90;;;;;;5044626;28;39025;-79
2022/04/09 05:43:41;;;;;;;22.37;3.50;;;6.20;99.90;;;;;;5076386;28;38230;-79
2022/04/09 05:46:08;;;;;;;14.00;2.47;;;6.20;99.90;;;;;;5068522;28;37863;-79
2022/04/09 05:48:34;;;;;;;21.33;3.43;;;6.20;99.90;;;;;;5052423;27;38478;-79
2022/04/09 05:51:00;;;;;;;16.13;2.77;;;6.10;99.90;;;;;;5061833;28;38796;-80
2022/04/09 05:53:26;;;;;;;15.67;2.43;;;6.20;99.90;;;;;;5067634;28;40103;-79
2022/04/09 05:55:52;;;;;;;19.93;2.57;;;6.20;99.90;;;;;;5067591;28;36982;-80
2022/04/09 05:58:18;;;;;;;16.70;2.30;;;6.20;99.90;;;;;;5037506;28;39388;-79
2022/04/09 06:00:44;;;;;;;11.87;2.67;;;6.10;99.90;;;;;;5057280;28;38588;-79
2022/04/09 06:03:11;;;;;;;17.17;2.73;;;6.00;99.90;;;;;;5065002;28;38421;-79
2022/04/09 06:05:37;;;;;;;11.60;2.47;;;6.00;99.90;;;;;;5072697;28;37078;-79
2022/04/09 06:08:03;;;;;;;21.20;2.90;;;6.00;99.90;;;;;;5054327;28;40730;-79
2022/04/09 06:10:30;;;;;;;12.37;2.90;;;5.90;99.90;;;;;;5061308;28;37827;-80
2022/04/09 06:12:56;;;;;;;14.93;3.07;;;5.90;99.90;;;;;;5057846;28;36948;-79
2022/04/09 06:15:22;;;;;;;14.60;2.37;;;5.90;99.90;;;;;;5073130;28;37799;-79
2022/04/09 06:17:48;;;;;;;17.23;3.53;;;5.80;99.90;;;;;;5080530;28;39354;-80
2022/04/09 06:20:16;;;;;;;14.43;3.07;;;5.90;99.90;;;;;;5079225;28;38972;-78
2022/04/09 06:22:42;;;;;;;14.67;3.30;;;5.90;99.90;;;;;;5071467;28;39072;-78
2022/04/09 06:25:09;;;;;;;12.40;2.47;;;6.00;99.90;;;;;;5054173;28;38216;-78
2022/04/09 06:27:41;;;;;;;19.20;2.57;;;6.10;99.90;;;;;;5056545;28;38401;-78
2022/04/09 06:30:09;;;;;;;11.35;2.33;;;6.20;99.90;;;;;;5073982;28;38997;-78
2022/04/09 06:32:36;;;;;;;12.93;3.80;;;6.30;99.90;;;;;;5044419;28;37042;-78
2022/04/09 06:35:02;;;;;;;15.20;2.70;;;6.40;99.90;;;;;;5046011;28;37822;-78
2022/04/09 06:37:28;;;;;;;11.53;1.80;;;6.40;99.90;;;;;;5047271;28;38771;-78
2022/04/09 06:39:55;;;;;;;11.00;2.27;;;6.50;99.90;;;;;;5049754;28;40318;-79
2022/04/09 06:42:22;;;;;;;12.30;2.50;;;6.70;99.90;;;;;;5055955;28;37831;-78
2022/04/09 06:44:48;;;;;;;12.73;2.47;;;6.80;99.90;;;;;;5065192;28;39020;-78
2022/04/09 06:47:14;;;;;;;16.37;3.43;;;6.90;99.90;;;;;;5047210;28;38637;-79
2022/04/09 06:49:40;;;;;;;11.90;2.40;;;7.00;99.90;;;;;;5061248;28;39618;-80
2022/04/09 06:52:06;;;;;;;11.07;2.93;;;7.10;99.90;;;;;;5068991;28;38832;-78
2022/04/09 06:54:32;;;;;;;16.37;2.50;;;7.10;99.90;;;;;;5062421;28;36691;-78
2022/04/09 06:56:59;;;;;;;16.60;2.70;;;7.20;99.90;;;;;;5065881;28;39266;-80
2022/04/09 06:59:25;;;;;;;19.27;2.07;;;7.20;99.90;;;;;;5062869;28;38602;-78
2022/04/09 07:01:51;;;;;;;14.07;2.40;;;7.20;99.90;;;;;;5055355;28;38027;-80
2022/04/09 07:04:17;;;;;;;10.83;2.43;;;7.40;99.90;;;;;;5062052;28;36551;-79
2022/04/09 07:06:46;;;;;;;14.07;2.07;;;7.30;99.90;;;;;;5078572;28;40732;-79
2022/04/09 07:09:13;;;;;;;12.67;2.57;;;7.30;99.90;;;;;;5065077;28;39017;-79
2022/04/09 07:11:39;;;;;;;15.70;2.40;;;7.30;99.90;;;;;;5044693;28;39801;-79
2022/04/09 07:14:05;;;;;;;11.17;2.33;;;7.40;99.90;;;;;;5064240;28;37926;-79
2022/04/09 07:16:31;;;;;;;17.37;3.17;;;7.40;99.90;;;;;;5066526;28;39235;-80
2022/04/09 07:18:57;;;;;;;12.37;2.77;;;7.40;99.90;;;;;;5043565;28;38627;-80
2022/04/09 07:21:23;;;;;;;9.63;2.30;;;7.40;99.90;;;;;;5048264;28;40045;-79
2022/04/09 07:23:50;;;;;;;8.97;2.30;;;7.40;99.90;;;;;;5064655;28;38018;-80
2022/04/09 07:26:18;;;;;;;15.47;2.00;;;7.50;99.90;;;;;;5061644;28;39869;-80
2022/04/09 07:28:44;;;;;;;14.37;2.67;;;7.60;99.90;;;;;;5050857;28;39719;-79
2022/04/09 07:31:10;;;;;;;12.63;2.27;;;7.70;99.90;;;;;;5062975;28;38669;-79
2022/04/09 07:33:37;;;;;;;10.30;2.67;;;7.70;99.90;;;;;;5070653;28;38121;-79
2022/04/09 07:36:04;;;;;;;14.43;2.80;;;7.90;99.90;;;;;;5064781;28;40024;-79
2022/04/09 07:38:30;;;;;;;11.17;2.47;;;8.10;99.90;;;;;;5064765;28;38745;-79
2022/04/09 07:40:56;;;;;;;16.20;2.90;;;8.00;99.90;;;;;;5067693;28;38100;-79
2022/04/09 07:43:22;;;;;;;11.70;3.30;;;8.10;99.90;;;;;;5083010;27;38683;-77
2022/04/09 07:45:49;;;;;;;15.77;2.87;;;8.30;99.90;;;;;;5086528;28;39201;-80
2022/04/09 07:48:15;;;;;;;14.73;2.77;;;8.40;99.90;;;;;;5059144;28;39196;-77
2022/04/09 07:50:41;;;;;;;11.93;2.33;;;8.60;99.90;;;;;;5059900;28;39356;-79
2022/04/09 07:53:11;;;;;;;11.47;2.87;;;8.70;99.90;;;;;;5061225;28;37273;-79
2022/04/09 07:55:37;;;;;;;8.90;2.23;;;8.60;99.90;;;;;;5058738;28;38526;-80
2022/04/09 07:58:05;;;;;;;10.43;2.10;;;8.40;99.90;;;;;;5054653;28;39107;-79
2022/04/09 08:00:31;;;;;;;13.43;2.10;;;8.40;99.90;;;;;;5062035;28;38216;-79
2022/04/09 08:02:57;;;;;;;11.87;2.03;;;8.40;99.90;;;;;;5055952;28;37271;-79
2022/04/09 08:05:23;;;;;;;10.83;2.10;;;8.40;99.90;;;;;;5059604;28;40500;-80
2022/04/09 08:07:49;;;;;;;6.80;1.67;;;8.30;99.90;;;;;;5072126;27;38812;-79
2022/04/09 08:10:16;;;;;;;7.87;2.20;;;8.50;99.90;;;;;;5046339;28;39725;-79
2022/04/09 08:12:42;;;;;;;9.67;1.50;;;8.80;99.90;;;;;;5062024;28;38011;-79
2022/04/09 08:15:09;;;;;;;11.97;2.47;;;9.00;99.90;;;;;;5066400;28;38822;-76
2022/04/09 08:17:39;;;;;;;12.80;2.50;;;9.00;99.90;;;;;;5060541;28;38655;-77
2022/04/09 08:20:06;;;;;;;9.33;2.40;;;9.10;99.90;;;;;;5045428;28;38503;-77
2022/04/09 08:22:32;;;;;;;12.07;2.40;;;9.10;99.90;;;;;;5058343;28;36575;-77
2022/04/09 08:25:01;;;;;;;6.57;1.83;;;9.30;99.90;;;;;;5062717;28;39152;-78
2022/04/09 08:27:28;;;;;;;11.70;2.30;;;9.30;99.90;;;;;;5067529;28;37309;-77
2022/04/09 08:29:54;;;;;;;13.60;2.30;;;9.60;99.90;;;;;;5070636;28;38670;-77
2022/04/09 08:32:22;;;;;;;11.83;2.70;;;9.70;99.90;;;;;;5065622;28;36122;-77
2022/04/09 08:34:49;;;;;;;10.23;2.00;;;9.40;99.90;;;;;;5068754;28;39686;-77
2022/04/09 08:37:15;;;;;;;12.57;1.90;;;9.40;99.90;;;;;;5062539;28;39163;-77
2022/04/09 08:39:41;;;;;;;10.10;1.87;;;9.80;99.90;;;;;;5074139;28;36894;-78
2022/04/09 08:42:08;;;;;;;10.97;2.50;;;9.80;99.90;;;;;;5050989;28;37647;-78
2022/04/09 08:44:35;;;;;;;14.37;2.50;;;9.80;99.90;;;;;;5066617;28;39582;-78
2022/04/09 08:47:01;;;;;;;8.17;1.87;;;9.80;99.90;;;;;;5052083;28;39308;-78
2022/04/09 08:49:29;;;;;;;8.23;2.07;;;9.80;99.90;;;;;;5044545;28;46949;-78
2022/04/09 08:51:55;;;;;;;10.07;2.30;;;9.90;99.90;;;;;;5064582;28;37967;-78
2022/04/09 08:54:22;;;;;;;11.13;2.53;;;10.10;99.90;;;;;;5068687;28;38948;-77
2022/04/09 08:56:49;;;;;;;6.03;1.73;;;10.30;99.90;;;;;;5060318;28;39392;-78
2022/04/09 08:59:16;;;;;;;11.38;2.38;;;9.90;99.90;;;;;;5061525;28;38745;-78
2022/04/09 09:01:42;;;;;;;9.83;2.20;;;9.60;99.90;;;;;;5069275;28;36704;-77
2022/04/09 09:04:08;;;;;;;10.83;1.73;;;9.60;99.90;;;;;;5055726;28;40020;-77
2022/04/09 09:06:39;;;;;;;9.53;1.77;;;9.40;99.90;;;;;;5062613;28;40168;-77
2022/04/09 09:09:06;;;;;;;11.73;2.00;;;9.60;99.90;;;;;;5061554;28;38343;-77
2022/04/09 09:11:47;;;;;;;8.57;1.67;;;9.80;99.90;;;;;;5070189;28;38522;-77
2022/04/09 09:14:32;;;;;;;12.00;1.90;;;10.00;99.90;;;;;;5051825;28;39157;-78
2022/04/09 09:16:59;;;;;;;10.20;1.90;;;9.90;99.90;;;;;;5065709;28;39358;-78
2022/04/09 09:19:46;;;;;;;11.80;1.77;;;9.60;99.90;;;;;;5047468;28;38110;-78
2022/04/09 09:22:12;;;;;;;12.33;1.83;;;9.90;99.90;;;;;;5063524;28;37717;-78
2022/04/09 09:24:38;;;;;;;5.93;2.03;;;10.10;99.90;;;;;;5069927;28;38876;-77
2022/04/09 09:27:06;;;;;;;5.43;1.93;;;10.20;99.90;;;;;;5060329;28;38957;-76
2022/04/09 09:29:33;;;;;;;10.88;2.00;;;10.20;99.90;;;;;;5049776;28;37328;-77
2022/04/09 09:32:02;;;;;;;8.40;2.00;;;10.30;99.90;;;;;;5071762;28;37378;-77
2022/04/09 09:34:29;;;;;;;10.00;1.80;;;10.10;99.90;;;;;;5047286;28;48626;-76
2022/04/09 09:36:55;;;;;;;6.83;1.70;;;10.00;99.90;;;;;;5064645;28;39165;-76
2022/04/09 09:39:23;;;;;;;7.70;1.57;;;9.70;99.90;;;;;;5042366;27;38438;-76
2022/04/09 09:41:58;;;;;;;3.93;1.20;;;9.80;99.90;;;;;;5043033;28;37445;-77
2022/04/09 09:44:25;;;;;;;7.27;1.40;;;9.90;99.90;;;;;;5033116;28;39594;-78
2022/04/09 09:46:53;;;;;;;7.68;1.50;;;9.90;99.90;;;;;;5032783;28;38317;-78
2022/04/09 09:49:22;;;;;;;7.03;1.53;;;9.80;99.90;;;;;;5035347;28;37892;-77
2022/04/09 09:52:06;;;;;;;9.50;1.90;;;9.90;99.90;;;;;;5053059;28;38949;-78
2022/04/09 09:54:32;;;;;;;6.35;1.17;;;10.30;99.90;;;;;;5042408;28;48150;-77
2022/04/09 09:56:59;;;;;;;6.00;1.35;;;10.50;99.90;;;;;;5062733;28;38967;-78
2022/04/09 09:59:27;;;;;;;5.57;1.67;;;10.60;99.90;;;;;;5048942;28;38466;-78
2022/04/09 10:01:56;;;;;;;9.10;1.40;;;10.70;99.90;;;;;;5061368;28;38082;-78
2022/04/09 10:04:23;;;;;;;5.13;2.00;;;10.30;99.90;;;;;;5071996;28;37531;-78
2022/04/09 10:06:49;;;;;;;6.18;1.27;;;10.40;99.90;;;;;;5058917;28;37385;-77
2022/04/09 10:09:18;;;;;;;8.17;1.40;;;10.20;99.90;;;;;;5069098;28;37202;-77
2022/04/09 10:11:54;;;;;;;6.43;1.30;;;10.10;99.90;;;;;;5061194;28;38005;-78
2022/04/09 10:14:28;;;;;;;6.60;1.50;;;10.30;99.90;;;;;;5050564;28;39243;-77
2022/04/09 10:16:55;;;;;;;6.10;1.17;;;9.90;99.90;;;;;;5073658;28;38928;-78
2022/04/09 10:19:23;;;;;;;6.00;1.53;;;10.10;99.90;;;;;;5072021;28;37122;-77
2022/04/09 10:21:51;;;;;;;7.23;1.63;;;10.60;99.90;;;;;;5070714;28;36199;-77
2022/04/09 10:24:26;;;;;;;6.10;1.17;;;10.80;99.90;;;;;;5060569;28;37635;-78
2022/04/09 10:26:56;;;;;;;6.60;1.47;;;10.70;99.90;;;;;;5064685;28;37451;-77
2022/04/09 10:29:22;;;;;;;6.03;1.00;;;10.90;99.90;;;;;;5060867;28;37184;-76
2022/04/09 10:31:52;;;;;;;4.80;1.00;;;10.70;99.90;;;;;;5070660;28;38761;-78
2022/04/09 10:34:20;;;;;;;6.57;1.60;;;10.70;99.90;;;;;;5065761;28;40069;-77
2022/04/09 10:36:46;;;;;;;7.17;1.50;;;10.70;99.90;;;;;;5077989;28;38013;-77
2022/04/09 10:39:26;;;;;;;7.37;1.30;;;10.40;99.90;;;;;;5060208;28;37971;-77
2022/04/09 10:41:55;;;;;;;5.00;1.60;;;10.60;99.90;;;;;;5067543;28;36210;-78
2022/04/09 10:44:43;;;;;;;5.57;1.20;;;10.50;99.90;;;;;;5062190;28;38470;-78
2022/04/09 10:47:13;;;;;;;4.13;1.23;;;10.40;99.90;;;;;;5063792;28;37388;-77
2022/04/09 10:49:39;;;;;;;6.88;1.15;;;10.20;99.90;;;;;;5060604;28;38880;-78
2022/04/09 10:52:23;;;;;;;10.70;1.77;;;10.50;99.90;;;;;;5066111;28;37100;-78
2022/04/09 10:55:06;;;;;;;4.87;1.13;;;11.00;99.90;;;;;;5061319;28;39014;-77
2022/04/09 10:57:44;;;;;;;6.80;1.30;;;10.50;99.90;;;;;;5060158;28;48646;-78
2022/04/09 11:00:37;;;;;;;4.10;1.27;;;10.70;99.90;;;;;;5069788;28;38077;-78
2022/04/09 11:03:17;;;;;;;6.20;1.40;;;10.70;99.90;;;;;;5064454;28;36255;-78
2022/04/09 11:05:44;;;;;;;4.30;1.38;;;10.20;99.90;;;;;;5066701;28;38793;-76
2022/04/09 11:08:20;;;;;;;8.80;1.40;;;10.10;99.90;;;;;;5081368;28;36723;-77
2022/04/09 11:10:46;;;;;;;3.33;1.17;;;10.20;99.90;;;;;;5066163;28;37081;-77
2022/04/09 11:13:12;;;;;;;5.70;1.77;;;10.30;99.90;;;;;;5067770;28;37396;-77
2022/04/09 11:15:44;;;;;;;4.80;1.43;;;10.30;99.90;;;;;;5064941;28;38771;-78
2022/04/09 11:18:10;;;;;;;3.60;1.00;;;9.90;99.90;;;;;;5078151;27;38626;-78
2022/04/09 11:20:37;;;;;;;7.57;1.53;;;10.00;99.90;;;;;;5064505;28;38147;-77
2022/04/09 11:23:09;;;;;;;5.60;1.47;;;10.10;99.90;;;;;;5064194;28;37154;-79
2022/04/09 11:25:40;;;;;;;6.53;1.23;;;10.00;99.90;;;;;;5062504;28;39897;-77
2022/04/09 11:28:10;;;;;;;7.10;1.57;;;10.10;99.90;;;;;;5060507;28;37503;-77
2022/04/09 11:30:37;;;;;;;5.37;1.37;;;10.30;99.90;;;;;;5064961;28;38055;-77
2022/04/09 11:33:03;;;;;;;8.77;1.50;;;10.60;99.90;;;;;;5069507;28;38030;-77
2022/04/09 11:35:35;;;;;;;8.53;1.47;;;10.40;99.90;;;;;;5064109;28;38550;-78
2022/04/09 11:38:01;;;;;;;6.97;1.20;;;11.00;99.90;;;;;;5048578;28;38442;-75
2022/04/09 11:40:27;;;;;;;5.95;1.60;;;10.90;99.90;;;;;;5063030;28;39045;-78
2022/04/09 11:42:55;;;;;;;7.00;1.50;;;10.90;99.90;;;;;;5066898;28;37205;-79
2022/04/09 11:45:23;;;;;;;10.20;2.20;;;10.80;99.90;;;;;;5063225;28;39814;-77
2022/04/09 11:47:54;;;;;;;4.55;1.17;;;10.80;99.90;;;;;;5049459;28;39365;-78
2022/04/09 11:50:21;;;;;;;8.00;1.52;;;10.70;99.90;;;;;;5074164;28;37176;-78
2022/04/09 11:52:47;;;;;;;5.63;1.02;;;10.70;99.90;;;;;;5072896;28;36682;-78
2022/04/09 11:55:15;;;;;;;4.93;1.25;;;11.00;99.90;;;;;;5088927;28;38074;-78
2022/04/09 11:57:54;;;;;;;9.45;1.55;;;11.40;99.90;;;;;;5071248;28;37383;-77
2022/04/09 12:00:27;;;;;;;6.20;1.52;;;11.20;99.90;;;;;;5066333;28;37962;-78
2022/04/09 12:02:53;;;;;;;;;;;10.80;99.90;;;;;;5076020;28;36410;-78
2022/04/09 12:05:20;;;;;;;9.00;1.30;;;10.80;99.90;;;;;;5068619;28;38459;-79
2022/04/09 12:07:48;;;;;;;4.55;1.10;;;10.60;99.90;;;;;;5067828;28;39413;-79
2022/04/09 12:10:27;;;;;;;3.42;1.02;;;10.50;99.90;;;;;;5083679;28;38082;-78
2022/04/09 12:13:07;;;;;;;8.27;1.25;;;10.70;99.90;;;;;;5076073;28;36949;-80
2022/04/09 12:15:35;;;;;;;3.00;0.80;;;10.90;99.90;;;;;;5068488;28;49036;-78
2022/04/09 12:18:04;;;;;;;4.57;0.90;;;11.40;99.90;;;;;;5074940;27;38228;-79
2022/04/09 12:20:39;;;;;;;4.20;1.05;;;11.80;99.90;;;;;;5087110;28;47354;-78
2022/04/09 12:23:06;;;;;;;6.68;1.15;;;11.80;99.90;;;;;;5071204;28;40321;-79
2022/04/09 12:25:40;;;;;;;1.65;0.80;;;11.40;99.90;;;;;;5067620;28;38508;-78
2022/04/09 12:28:22;;;;;;;3.63;0.90;;;11.40;99.90;;;;;;5060083;27;37337;-78
2022/04/09 12:30:49;;;;;;;6.23;1.70;;;11.60;99.90;;;;;;5059110;28;39631;-78
2022/04/09 12:33:15;;;;;;;3.38;1.00;;;11.70;99.90;;;;;;5079990;28;37783;-80
2022/04/09 12:35:42;;;;;;;3.95;0.80;;;11.90;99.90;;;;;;5067437;28;39855;-80
2022/04/09 12:38:08;;;;;;;4.53;1.00;;;12.10;99.90;;;;;;5047506;28;39420;-81
2022/04/09 12:40:36;;;;;;;4.80;0.80;;;11.80;99.90;;;;;;5066862;28;37356;-77
2022/04/09 12:43:23;;;;;;;6.45;1.02;;;11.00;99.90;;;;;;5062021;28;36115;-78
2022/04/09 12:46:05;;;;;;;2.80;0.85;;;10.60;99.90;;;;;;5047434;28;37432;-79
2022/04/09 12:48:46;;;;;;;2.08;0.80;;;11.00;99.90;;;;;;5080778;28;47255;-78
2022/04/09 12:51:14;;;;;;;4.13;1.02;;;11.40;99.90;;;;;;5068718;28;39141;-78